PORT of SANTA UXIA RIBEIRA

Riik: Spain Riik: Spain [ES]
Latitude / Longitude: 42.559005° / -8.989251° Näita kaardil
Kohalik aeg:  [UTC +2]
UN/LOCODE: ESRBI
Vessels currently in Port: 7

Recent Arrivals and Departures


Vessel's Name
Saabumine (UTC)
Saabumine (LT)
Departure (UTC)
Departure (LT)
Vessel Type: Kalastamine  COYO CUARTO 2014-09-01 17:50:00 2014-09-01 19:50:00 2014-09-02 00:29:00 2014-09-02 02:29:00
Vessel Type: Kalastamine  VIRXE DO MAR 2014-09-01 17:29:00 2014-09-01 19:29:00 2014-09-02 00:26:00 2014-09-02 02:26:00
Vessel Type: Kalastamine  MAR DE VIANA 2014-09-01 20:39:00 2014-09-01 22:39:00 2014-09-02 00:10:00 2014-09-02 02:10:00
Vessel Type: Kalastamine  MAR IBERICO 2014-09-01 19:49:00 2014-09-01 21:49:00 2014-09-02 00:07:00 2014-09-02 02:07:00
Vessel Type: Kalastamine  PRAIA DO TOURO 2014-09-01 17:48:00 2014-09-01 19:48:00 2014-09-01 23:11:00 2014-09-02 01:11:00
Vessel Type: Kalastamine  SANTA ANITA 2014-09-01 20:01:00 2014-09-01 22:01:00 2014-09-01 23:10:00 2014-09-02 01:10:00
Vessel Type: Kalastamine  NUEVO PESQUERO LIJO 2014-09-01 17:49:00 2014-09-01 19:49:00 2014-09-01 23:09:00 2014-09-02 01:09:00
Vessel Type: Kalastamine  CRUNIA 2014-08-26 13:33:00 2014-08-26 15:33:00 2014-09-01 22:59:00 2014-09-02 00:59:00
Vessel Type: Kalastamine  NUEVO MARINA 2014-09-01 18:16:00 2014-09-01 20:16:00 2014-09-01 22:46:00 2014-09-02 00:46:00
Vessel Type: Kalastamine  SABINO SEGUNDO 2014-09-01 17:52:00 2014-09-01 19:52:00 2014-09-01 22:40:00 2014-09-02 00:40:00

Oodatavad saabumised


Vessel's Name
Scheduled Arrival (UTC)
Ajastatud saabumisaeg (KA)
Loodetav saabumisaeg (UTC)
Loodetav saabumisaeg (KA)
Salvestusi ei leitud

Ilmainfo tuulest


    
Aeg (UTC)
Kiirus
Suund
Temperatuur
2014-09-02 00:00:00 11 knots 77° 21°C
2014-09-02 03:00:00 10 knots 76° 21°C
2014-09-02 06:00:00 9 knots 88° 20°C
2014-09-02 09:00:00 8 knots 98° 23°C
2014-09-02 12:00:00 3 knots 321° 27°C
2014-09-02 15:00:00 7 knots 255° 22°C
2014-09-02 18:00:00 7 knots 205° 22°C
2014-09-02 21:00:00 11 knots 194° 20°C
2014-09-03 00:00:00 15 knots 200° 19°C
2014-09-03 03:00:00 14 knots 200° 19°C
2014-09-03 06:00:00 14 knots 198° 18°C
2014-09-03 09:00:00 14 knots 201° 18°C
2014-09-03 12:00:00 14 knots 228° 18°C
2014-09-03 15:00:00 12 knots 228° 17°C
2014-09-03 18:00:00 8 knots 203° 17°C
2014-09-03 21:00:00 7 knots 181° 17°C
2014-09-04 00:00:00 6 knots 181° 16°C